Time;durP1;ratioP1;P1;durP2;ratioP2;P2;SDS_P1;SDS_P2;PMS_P1;PMS_P2;Temp;Humidity;BMP_temperature;BMP_pressure;BME280_temperature;BME280_humidity;BME280_pressure;Samples;Min_cycle;Max_cycle;Signal;HPM_P1;HPM_P2
2024/01/04 00:02:02;;;;;;;6.18;1.88;;;;;;;;;;5070344;28;20110;-84
2024/01/04 00:04:46;;;;;;;4.65;1.90;;;;;;;;;;5054225;28;20090;-84
2024/01/04 00:07:31;;;;;;;6.63;1.83;;;;;;;;;;5069944;28;20043;-84
2024/01/04 00:10:17;;;;;;;5.75;1.73;;;;;;;;;;5069760;28;20492;-84
2024/01/04 00:13:02;;;;;;;7.40;2.10;;;;;;;;;;5061633;28;20035;-84
2024/01/04 00:15:46;;;;;;;8.02;2.13;;;;;;;;;;5054640;28;20120;-84
2024/01/04 00:18:31;;;;;;;8.73;1.65;;;;;;;;;;5073603;28;20427;-84
2024/01/04 00:21:16;;;;;;;4.53;1.60;;;;;;;;;;5063204;28;20040;-84
2024/01/04 00:24:01;;;;;;;7.68;1.60;;;;;;;;;;5073010;28;20119;-84
2024/01/04 00:26:45;;;;;;;7.05;1.85;;;;;;;;;;5073261;28;20499;-84
2024/01/04 00:29:30;;;;;;;5.35;1.88;;;;;;;;;;5055011;28;20040;-84
2024/01/04 00:32:15;;;;;;;4.32;1.90;;;;;;;;;;5065931;28;20077;-84
2024/01/04 00:34:59;;;;;;;5.70;1.58;;;;;;;;;;5057904;28;20523;-84
2024/01/04 00:37:44;;;;;;;5.50;1.80;;;;;;;;;;5072986;28;20508;-84
2024/01/04 00:40:28;;;;;;;3.13;1.45;;;;;;;;;;5073739;28;20455;-84
2024/01/04 00:43:13;;;;;;;6.88;1.63;;;;;;;;;;5072535;28;20043;-84
2024/01/04 00:45:58;;;;;;;4.88;1.42;;;;;;;;;;5058026;28;20538;-84
2024/01/04 00:48:43;;;;;;;10.07;1.52;;;;;;;;;;5063113;28;20043;-84
2024/01/04 00:51:28;;;;;;;7.10;1.60;;;;;;;;;;5057771;28;20039;-84
2024/01/04 00:54:13;;;;;;;3.70;1.70;;;;;;;;;;5057121;28;20039;-84
2024/01/04 00:56:58;;;;;;;2.95;1.45;;;;;;;;;;5062414;28;20155;-84
2024/01/04 00:59:42;;;;;;;5.70;1.10;;;;;;;;;;5073046;28;20043;-84
2024/01/04 01:02:27;;;;;;;4.15;1.60;;;;;;;;;;5072154;28;20041;-84
2024/01/04 01:05:11;;;;;;;6.88;1.77;;;;;;;;;;5072843;28;20067;-84
2024/01/04 01:07:56;;;;;;;6.57;1.25;;;;;;;;;;5072365;28;20036;-84
2024/01/04 01:10:40;;;;;;;6.55;1.65;;;;;;;;;;5059112;28;20120;-84
2024/01/04 01:13:25;;;;;;;4.45;1.30;;;;;;;;;;5073133;28;20097;-85
2024/01/04 01:16:10;;;;;;;3.58;1.25;;;;;;;;;;5059531;28;20044;-84
2024/01/04 01:18:55;;;;;;;24.80;4.63;;;;;;;;;;5072267;28;20110;-84
2024/01/04 01:21:41;;;;;;;4.93;1.38;;;;;;;;;;5072001;28;20079;-85
2024/01/04 01:24:26;;;;;;;2.00;1.00;;;;;;;;;;5061964;28;20496;-84
2024/01/04 01:27:10;;;;;;;3.65;0.90;;;;;;;;;;5071751;28;20447;-84
2024/01/04 01:29:55;;;;;;;4.82;1.27;;;;;;;;;;5071042;28;20066;-84
2024/01/04 01:32:40;;;;;;;3.80;1.08;;;;;;;;;;5062821;28;20242;-85
2024/01/04 01:35:25;;;;;;;4.63;1.10;;;;;;;;;;5071403;28;20075;-84
2024/01/04 01:38:09;;;;;;;4.75;1.33;;;;;;;;;;5058898;28;20043;-84
2024/01/04 01:40:54;;;;;;;4.55;1.02;;;;;;;;;;5057556;28;20047;-84
2024/01/04 01:43:38;;;;;;;2.33;1.23;;;;;;;;;;5059832;28;20042;-84
2024/01/04 01:46:23;;;;;;;4.97;1.35;;;;;;;;;;5071802;28;20499;-84
2024/01/04 01:49:08;;;;;;;4.75;1.15;;;;;;;;;;5069318;28;20079;-84
2024/01/04 01:51:53;;;;;;;3.80;1.50;;;;;;;;;;5061272;28;20082;-84
2024/01/04 01:54:39;;;;;;;7.22;1.30;;;;;;;;;;5066996;28;20032;-85
2024/01/04 01:57:27;;;;;;;3.25;1.30;;;;;;;;;;5053172;28;20532;-85
2024/01/04 02:00:12;;;;;;;5.55;1.10;;;;;;;;;;5056379;28;20503;-84
2024/01/04 02:02:57;;;;;;;2.53;1.30;;;;;;;;;;5058538;28;20043;-84
2024/01/04 02:05:42;;;;;;;7.25;1.30;;;;;;;;;;5073102;28;20056;-84
2024/01/04 02:08:27;;;;;;;3.40;1.33;;;;;;;;;;5072070;28;20462;-84
2024/01/04 02:11:12;;;;;;;5.43;1.17;;;;;;;;;;5070912;28;20720;-84
2024/01/04 02:13:57;;;;;;;5.30;1.20;;;;;;;;;;5071609;28;20057;-84
2024/01/04 02:16:41;;;;;;;4.32;1.00;;;;;;;;;;5071755;28;20090;-84
2024/01/04 02:19:27;;;;;;;1.70;0.80;;;;;;;;;;5056769;28;20036;-84
2024/01/04 02:22:12;;;;;;;2.08;0.90;;;;;;;;;;5070672;28;20031;-85
2024/01/04 02:24:57;;;;;;;3.22;1.13;;;;;;;;;;5071462;28;20452;-85
2024/01/04 02:27:42;;;;;;;4.65;1.40;;;;;;;;;;5060220;28;20043;-84
2024/01/04 02:30:26;;;;;;;4.03;1.10;;;;;;;;;;5070758;28;20502;-84
2024/01/04 02:33:11;;;;;;;6.65;1.20;;;;;;;;;;5069920;28;20404;-84
2024/01/04 02:35:55;;;;;;;2.50;0.90;;;;;;;;;;5061084;28;20071;-85
2024/01/04 02:38:40;;;;;;;5.10;0.95;;;;;;;;;;5041898;28;20499;-85
2024/01/04 02:41:27;;;;;;;6.53;1.48;;;;;;;;;;5070945;28;20040;-85
2024/01/04 02:44:12;;;;;;;6.63;1.48;;;;;;;;;;5070640;28;20040;-84
2024/01/04 02:46:57;;;;;;;5.40;1.10;;;;;;;;;;5059372;28;20073;-84
2024/01/04 02:49:41;;;;;;;4.88;0.88;;;;;;;;;;5070688;28;20081;-84
2024/01/04 02:52:26;;;;;;;3.47;0.80;;;;;;;;;;5045759;28;20094;-84
2024/01/04 02:55:11;;;;;;;2.67;0.75;;;;;;;;;;5059804;28;20078;-84
2024/01/04 02:57:56;;;;;;;3.55;0.90;;;;;;;;;;5070706;28;20038;-84
2024/01/04 03:00:40;;;;;;;1.25;1.15;;;;;;;;;;5070891;28;20051;-84
2024/01/04 03:03:24;;;;;;;3.47;1.10;;;;;;;;;;5070654;28;20495;-84
2024/01/04 03:06:09;;;;;;;3.05;0.80;;;;;;;;;;5072445;28;20051;-84
2024/01/04 03:08:54;;;;;;;2.80;0.82;;;;;;;;;;5055128;28;20040;-84
2024/01/04 03:11:39;;;;;;;2.00;0.63;;;;;;;;;;5051525;28;20496;-84
2024/01/04 03:14:23;;;;;;;3.17;0.80;;;;;;;;;;5068417;28;20105;-85
2024/01/04 03:17:08;;;;;;;4.03;0.93;;;;;;;;;;5070107;28;20102;-85
2024/01/04 03:19:53;;;;;;;4.53;1.10;;;;;;;;;;5062523;28;20043;-84
2024/01/04 03:22:37;;;;;;;3.38;0.80;;;;;;;;;;5053085;28;20043;-84
2024/01/04 03:25:22;;;;;;;3.80;1.17;;;;;;;;;;5070221;28;20040;-84
2024/01/04 03:28:07;;;;;;;3.33;0.82;;;;;;;;;;5057419;28;20516;-84
2024/01/04 03:30:52;;;;;;;3.55;0.95;;;;;;;;;;5071031;28;20054;-84
2024/01/04 03:33:36;;;;;;;1.83;0.70;;;;;;;;;;5054472;28;20046;-84
2024/01/04 03:36:20;;;;;;;4.93;1.20;;;;;;;;;;5070331;28;20120;-84
2024/01/04 03:39:05;;;;;;;1.40;0.70;;;;;;;;;;5058482;28;20166;-84
2024/01/04 03:41:49;;;;;;;2.65;1.00;;;;;;;;;;5069207;28;20035;-84
2024/01/04 03:44:34;;;;;;;5.03;1.00;;;;;;;;;;5062948;28;20046;-84
2024/01/04 03:47:20;;;;;;;10.20;1.02;;;;;;;;;;5033511;28;20094;-84
2024/01/04 03:50:05;;;;;;;5.18;1.00;;;;;;;;;;5071683;28;20099;-85
2024/01/04 03:52:50;;;;;;;6.28;1.02;;;;;;;;;;5073765;28;20094;-84
2024/01/04 03:55:35;;;;;;;7.35;1.15;;;;;;;;;;5073863;28;20043;-85
2024/01/04 03:58:19;;;;;;;3.17;0.90;;;;;;;;;;5061933;28;20174;-84
2024/01/04 04:01:04;;;;;;;4.68;1.83;;;;;;;;;;5058604;28;20043;-85
2024/01/04 04:03:48;;;;;;;3.45;0.90;;;;;;;;;;5062083;28;20044;-84
2024/01/04 04:06:33;;;;;;;2.47;1.00;;;;;;;;;;5063476;28;20446;-85
2024/01/04 04:09:18;;;;;;;2.83;0.80;;;;;;;;;;5093750;28;20038;-85
2024/01/04 04:12:02;;;;;;;4.93;1.10;;;;;;;;;;5071148;28;20094;-84
2024/01/04 04:14:47;;;;;;;2.58;0.93;;;;;;;;;;5076916;28;20553;-84
2024/01/04 04:17:31;;;;;;;3.42;0.90;;;;;;;;;;5088771;28;20048;-84
2024/01/04 04:20:16;;;;;;;5.05;0.98;;;;;;;;;;5060210;28;20594;-85
2024/01/04 04:23:01;;;;;;;2.60;0.70;;;;;;;;;;5093294;28;20039;-84
2024/01/04 04:25:45;;;;;;;3.53;1.30;;;;;;;;;;5078402;28;20407;-84
2024/01/04 04:28:30;;;;;;;3.85;1.08;;;;;;;;;;5093207;28;20054;-85
2024/01/04 04:31:17;;;;;;;6.57;1.20;;;;;;;;;;5093681;28;20084;-85
2024/01/04 04:34:02;;;;;;;3.38;1.00;;;;;;;;;;5090091;28;20108;-85
2024/01/04 04:36:47;;;;;;;2.80;0.90;;;;;;;;;;5093793;28;20158;-84
2024/01/04 04:39:32;;;;;;;4.65;0.90;;;;;;;;;;5092608;28;20069;-84
2024/01/04 04:42:16;;;;;;;4.30;1.00;;;;;;;;;;5078481;28;20086;-84
2024/01/04 04:45:01;;;;;;;6.25;1.08;;;;;;;;;;5093466;28;20050;-84
2024/01/04 04:47:45;;;;;;;5.70;1.00;;;;;;;;;;5079704;28;20118;-84
2024/01/04 04:50:30;;;;;;;6.78;1.50;;;;;;;;;;5093083;28;20043;-84
2024/01/04 04:53:14;;;;;;;7.07;1.33;;;;;;;;;;5093094;28;20039;-84
2024/01/04 04:55:59;;;;;;;10.98;1.40;;;;;;;;;;5083318;28;20109;-84
2024/01/04 04:58:43;;;;;;;6.00;1.20;;;;;;;;;;5092699;28;20039;-84
2024/01/04 05:01:28;;;;;;;8.40;2.05;;;;;;;;;;5050919;28;20396;-84
2024/01/04 05:04:12;;;;;;;6.32;1.40;;;;;;;;;;5093118;28;20046;-85
2024/01/04 05:06:57;;;;;;;3.70;1.00;;;;;;;;;;5078347;28;20059;-85
2024/01/04 05:09:42;;;;;;;7.55;1.15;;;;;;;;;;5081025;28;20058;-85
2024/01/04 05:12:31;;;;;;;3.92;1.10;;;;;;;;;;5092511;28;20119;-84
2024/01/04 05:15:16;;;;;;;6.93;1.20;;;;;;;;;;5091960;28;20047;-84
2024/01/04 05:18:00;;;;;;;4.07;0.98;;;;;;;;;;5092621;28;20581;-84
2024/01/04 05:20:45;;;;;;;5.05;1.10;;;;;;;;;;5076793;28;20043;-84
2024/01/04 05:23:29;;;;;;;2.80;1.02;;;;;;;;;;5077126;28;20198;-84
2024/01/04 05:26:21;;;;;;;4.53;1.10;;;;;;;;;;5092300;28;20533;-84
2024/01/04 05:29:06;;;;;;;3.65;1.10;;;;;;;;;;5081786;28;20051;-84
2024/01/04 05:31:50;;;;;;;4.53;0.90;;;;;;;;;;5079877;28;20655;-84
2024/01/04 05:34:36;;;;;;;2.88;1.00;;;;;;;;;;5090995;28;20392;-84
2024/01/04 05:37:20;;;;;;;3.35;0.95;;;;;;;;;;5092501;28;20412;-84
2024/01/04 05:40:05;;;;;;;7.03;1.00;;;;;;;;;;5080798;28;20594;-85
2024/01/04 05:42:50;;;;;;;3.13;0.90;;;;;;;;;;5091789;28;20039;-84
2024/01/04 05:45:35;;;;;;;2.30;1.17;;;;;;;;;;5076497;28;20097;-85
2024/01/04 05:48:19;;;;;;;4.43;1.10;;;;;;;;;;5092333;28;20038;-84
2024/01/04 05:51:04;;;;;;;4.97;1.15;;;;;;;;;;5091638;28;20170;-84
2024/01/04 05:53:48;;;;;;;4.70;0.90;;;;;;;;;;5091534;28;20054;-84
2024/01/04 05:56:33;;;;;;;4.00;0.90;;;;;;;;;;5088860;28;20035;-85
2024/01/04 05:59:18;;;;;;;4.88;0.82;;;;;;;;;;5090962;28;20088;-86
2024/01/04 06:02:02;;;;;;;5.80;0.90;;;;;;;;;;5082460;28;20043;-85
2024/01/04 06:04:47;;;;;;;4.95;0.98;;;;;;;;;;5088472;28;20054;-84
2024/01/04 06:07:31;;;;;;;2.45;1.15;;;;;;;;;;5050197;28;20039;-84
2024/01/04 06:10:16;;;;;;;3.63;1.13;;;;;;;;;;5064144;28;20508;-84
2024/01/04 06:13:00;;;;;;;2.33;0.75;;;;;;;;;;5060200;28;20044;-84
2024/01/04 06:15:45;;;;;;;5.25;1.30;;;;;;;;;;5055866;28;20780;-84
2024/01/04 06:18:30;;;;;;;5.78;1.10;;;;;;;;;;5067151;28;20044;-84
2024/01/04 06:21:15;;;;;;;1.90;0.80;;;;;;;;;;5061198;28;20031;-85
2024/01/04 06:24:00;;;;;;;3.85;0.80;;;;;;;;;;5069348;28;20071;-84
2024/01/04 06:26:45;;;;;;;2.00;0.90;;;;;;;;;;5055033;28;20083;-85
2024/01/04 06:29:31;;;;;;;4.93;0.90;;;;;;;;;;5071215;28;20038;-85
2024/01/04 06:32:16;;;;;;;5.32;1.13;;;;;;;;;;5056189;28;20064;-84
2024/01/04 06:35:00;;;;;;;7.10;1.10;;;;;;;;;;5061344;28;20515;-84
2024/01/04 06:37:45;;;;;;;3.10;0.88;;;;;;;;;;5041470;28;20047;-85
2024/01/04 06:40:29;;;;;;;6.70;2.20;;;;;;;;;;5055513;28;20051;-85
2024/01/04 06:43:14;;;;;;;4.15;1.15;;;;;;;;;;5066037;28;20086;-85
2024/01/04 06:45:58;;;;;;;1.92;1.00;;;;;;;;;;5067541;28;20055;-84
2024/01/04 06:48:43;;;;;;;3.25;0.90;;;;;;;;;;5062957;28;20036;-85
2024/01/04 06:51:28;;;;;;;3.53;1.00;;;;;;;;;;5041858;28;20122;-85
2024/01/04 06:54:13;;;;;;;2.30;1.00;;;;;;;;;;5070518;28;20132;-84
2024/01/04 06:56:57;;;;;;;3.75;1.00;;;;;;;;;;5065215;28;20432;-84
2024/01/04 06:59:42;;;;;;;6.40;1.27;;;;;;;;;;5053691;28;20393;-84
2024/01/04 07:02:26;;;;;;;2.20;0.93;;;;;;;;;;5046696;28;20112;-85
2024/01/04 07:05:11;;;;;;;6.50;1.20;;;;;;;;;;5066570;28;20056;-84
2024/01/04 07:07:56;;;;;;;6.57;1.00;;;;;;;;;;5070359;28;20039;-84
2024/01/04 07:10:41;;;;;;;2.67;1.02;;;;;;;;;;5043406;28;20044;-84
2024/01/04 07:13:25;;;;;;;4.90;1.10;;;;;;;;;;5070932;28;20061;-84
2024/01/04 07:16:10;;;;;;;6.35;1.65;;;;;;;;;;5070648;28;20534;-84
2024/01/04 07:18:55;;;;;;;5.40;1.65;;;;;;;;;;5070736;28;20040;-84
2024/01/04 07:21:40;;;;;;;2.00;0.90;;;;;;;;;;5042984;28;20056;-84
2024/01/04 07:24:24;;;;;;;1.88;0.82;;;;;;;;;;5074560;28;20126;-85
2024/01/04 07:27:12;;;;;;;2.05;0.80;;;;;;;;;;5047948;28;20060;-84
2024/01/04 07:29:59;;;;;;;6.78;1.30;;;;;;;;;;5059410;28;20500;-85
2024/01/04 07:32:44;;;;;;;4.30;0.98;;;;;;;;;;5073671;28;20039;-84
2024/01/04 07:35:28;;;;;;;5.05;1.10;;;;;;;;;;5074522;28;20086;-84
2024/01/04 07:38:13;;;;;;;6.43;0.98;;;;;;;;;;5074134;28;20039;-84
2024/01/04 07:40:58;;;;;;;5.05;1.70;;;;;;;;;;5058291;28;20134;-85
2024/01/04 07:43:44;;;;;;;4.70;0.82;;;;;;;;;;5043391;28;20039;-85
2024/01/04 07:46:30;;;;;;;4.30;1.00;;;;;;;;;;5058951;28;20119;-86
2024/01/04 07:49:15;;;;;;;8.75;2.28;;;;;;;;;;5055384;28;20098;-86
2024/01/04 07:51:59;;;;;;;4.10;1.00;;;;;;;;;;5051853;28;20229;-85
2024/01/04 07:54:44;;;;;;;7.70;2.08;;;;;;;;;;5059070;28;20098;-86
2024/01/04 07:57:30;;;;;;;3.90;1.75;;;;;;;;;;5073924;28;20055;-84
2024/01/04 08:00:14;;;;;;;4.05;1.20;;;;;;;;;;5057589;28;20047;-84
2024/01/04 08:02:59;;;;;;;4.32;1.35;;;;;;;;;;5058604;28;20135;-84
2024/01/04 08:05:44;;;;;;;2.85;1.27;;;;;;;;;;5073719;28;20106;-84
2024/01/04 08:08:28;;;;;;;4.72;1.77;;;;;;;;;;5054616;28;20110;-84
2024/01/04 08:11:13;;;;;;;6.15;2.33;;;;;;;;;;5071241;28;20408;-84
2024/01/04 08:13:58;;;;;;;5.75;1.30;;;;;;;;;;5058110;28;20047;-84
2024/01/04 08:16:43;;;;;;;4.72;1.67;;;;;;;;;;5058947;28;20109;-83
2024/01/04 08:19:28;;;;;;;4.88;1.20;;;;;;;;;;5056609;28;20048;-83
2024/01/04 08:22:13;;;;;;;1.88;1.10;;;;;;;;;;5070172;28;20059;-85
2024/01/04 08:24:57;;;;;;;5.95;1.20;;;;;;;;;;5064301;28;20400;-84
2024/01/04 08:27:42;;;;;;;4.95;1.10;;;;;;;;;;5073806;28;20078;-84
2024/01/04 08:30:26;;;;;;;7.30;1.63;;;;;;;;;;5066126;28;20097;-85
2024/01/04 08:33:11;;;;;;;7.97;1.35;;;;;;;;;;5052354;28;20074;-84
2024/01/04 08:35:56;;;;;;;4.82;1.80;;;;;;;;;;5058094;28;20115;-84
2024/01/04 08:38:41;;;;;;;3.80;1.60;;;;;;;;;;5056901;28;20032;-84
2024/01/04 08:41:26;;;;;;;7.43;1.00;;;;;;;;;;5061984;28;20040;-84
2024/01/04 08:44:10;;;;;;;5.57;1.25;;;;;;;;;;5072788;28;20070;-85
2024/01/04 08:46:55;;;;;;;2.67;1.20;;;;;;;;;;5056682;28;20086;-84
2024/01/04 08:49:39;;;;;;;4.47;1.67;;;;;;;;;;5057842;28;20067;-84
2024/01/04 08:52:24;;;;;;;7.45;1.63;;;;;;;;;;5055508;28;20134;-84
2024/01/04 08:55:09;;;;;;;2.75;1.20;;;;;;;;;;5046801;28;20122;-85
2024/01/04 08:57:53;;;;;;;5.35;1.63;;;;;;;;;;5058238;28;20043;-85
2024/01/04 09:00:38;;;;;;;9.18;1.33;;;;;;;;;;5063766;28;20094;-84
2024/01/04 09:03:22;;;;;;;5.53;1.25;;;;;;;;;;5061390;28;20848;-85
2024/01/04 09:06:08;;;;;;;3.95;1.45;;;;;;;;;;5082006;28;20127;-85
2024/01/04 09:08:53;;;;;;;5.70;1.60;;;;;;;;;;5098647;28;20097;-85
2024/01/04 09:11:41;;;;;;;3.22;1.50;;;;;;;;;;5093543;28;20038;-85
2024/01/04 09:14:26;;;;;;;4.00;1.48;;;;;;;;;;5076256;28;20055;-85
2024/01/04 09:17:10;;;;;;;4.57;1.40;;;;;;;;;;5062867;28;20109;-82
2024/01/04 09:19:55;;;;;;;2.50;1.13;;;;;;;;;;5064945;28;20116;-85
2024/01/04 09:22:39;;;;;;;8.13;2.55;;;;;;;;;;5052150;28;20046;-84
2024/01/04 09:25:24;;;;;;;5.05;1.52;;;;;;;;;;5079629;28;20160;-84
2024/01/04 09:28:09;;;;;;;13.18;2.42;;;;;;;;;;5077233;28;20081;-83
2024/01/04 09:30:53;;;;;;;5.03;1.10;;;;;;;;;;5064932;28;20039;-85
2024/01/04 09:33:39;;;;;;;4.32;1.10;;;;;;;;;;5072855;28;20051;-85
2024/01/04 09:36:24;;;;;;;4.20;1.40;;;;;;;;;;5075628;28;20503;-85
2024/01/04 09:39:14;;;;;;;6.07;1.10;;;;;;;;;;5090746;28;20082;-85
2024/01/04 09:42:00;;;;;;;3.08;1.20;;;;;;;;;;5078682;28;20036;-85
2024/01/04 09:44:46;;;;;;;3.72;1.20;;;;;;;;;;5075142;28;20156;-85
2024/01/04 09:47:31;;;;;;;2.28;1.00;;;;;;;;;;5079628;28;20115;-85
2024/01/04 09:50:16;;;;;;;2.47;1.20;;;;;;;;;;5075244;28;20040;-85
2024/01/04 09:53:01;;;;;;;4.80;1.92;;;;;;;;;;5090204;28;20153;-84
2024/01/04 09:55:46;;;;;;;4.70;1.30;;;;;;;;;;5065302;28;20043;-85
2024/01/04 09:58:31;;;;;;;2.95;1.27;;;;;;;;;;5067064;28;20118;-84
2024/01/04 10:01:20;;;;;;;6.20;1.70;;;;;;;;;;5075237;28;20559;-84
2024/01/04 10:04:06;;;;;;;5.30;1.35;;;;;;;;;;5091519;28;20047;-84
2024/01/04 10:06:51;;;;;;;8.40;1.27;;;;;;;;;;5066249;28;20079;-85
2024/01/04 10:09:44;;;;;;;3.90;1.50;;;;;;;;;;5083452;28;20081;-85
2024/01/04 10:12:32;;;;;;;4.70;1.85;;;;;;;;;;5091908;28;20083;-85
2024/01/04 10:15:17;;;;;;;2.28;1.02;;;;;;;;;;5075336;28;20052;-85
2024/01/04 10:18:02;;;;;;;4.05;1.40;;;;;;;;;;5092079;28;20038;-84
2024/01/04 10:21:04;;;;;;;4.80;1.48;;;;;;;;;;5073710;28;20082;-85
2024/01/04 10:24:07;;;;;;;6.72;1.52;;;;;;;;;;5088226;28;20046;-86
2024/01/04 10:26:57;;;;;;;5.82;1.30;;;;;;;;;;5090952;28;20035;-84
2024/01/04 10:29:45;;;;;;;4.38;1.23;;;;;;;;;;5075305;28;20412;-84
2024/01/04 10:32:29;;;;;;;4.72;2.00;;;;;;;;;;5076245;28;20442;-84
2024/01/04 10:35:14;;;;;;;7.28;1.90;;;;;;;;;;5064511;28;20051;-84
2024/01/04 10:37:59;;;;;;;4.05;1.70;;;;;;;;;;5090950;28;20034;-85
2024/01/04 10:40:44;;;;;;;3.47;1.13;;;;;;;;;;5090829;28;20121;-86
2024/01/04 10:43:30;;;;;;;2.47;1.13;;;;;;;;;;5088883;28;20550;-86
2024/01/04 10:46:14;;;;;;;2.72;1.20;;;;;;;;;;5071039;28;20085;-86
2024/01/04 10:49:00;;;;;;;4.38;1.05;;;;;;;;;;5075651;28;20062;-85
2024/01/04 10:51:47;;;;;;;3.20;1.15;;;;;;;;;;5079036;28;20108;-86
2024/01/04 10:54:32;;;;;;;3.00;1.00;;;;;;;;;;5074701;28;20120;-86
2024/01/04 10:57:17;;;;;;;3.92;1.30;;;;;;;;;;5075159;28;20101;-84
2024/01/04 11:00:05;;;;;;;4.90;1.10;;;;;;;;;;5090880;28;20388;-85
2024/01/04 11:02:50;;;;;;;3.33;1.00;;;;;;;;;;5074089;28;20046;-84
2024/01/04 11:05:35;;;;;;;6.47;1.40;;;;;;;;;;5045363;28;20417;-84
2024/01/04 11:08:20;;;;;;;7.07;1.42;;;;;;;;;;5070578;28;20115;-85
2024/01/04 11:11:05;;;;;;;4.18;1.30;;;;;;;;;;5070816;28;20040;-83
2024/01/04 11:13:49;;;;;;;3.25;0.98;;;;;;;;;;5055005;28;20051;-83
2024/01/04 11:16:46;;;;;;;5.57;1.48;;;;;;;;;;5052674;28;20443;-83
2024/01/04 11:19:59;;;;;;;4.03;1.33;;;;;;;;;;5060928;28;20570;-84
2024/01/04 11:22:43;;;;;;;5.15;1.10;;;;;;;;;;5070652;28;20507;-84
2024/01/04 11:25:28;;;;;;;4.53;1.30;;;;;;;;;;5053753;28;20075;-84
2024/01/04 11:28:13;;;;;;;3.15;1.13;;;;;;;;;;5054761;28;20043;-85
2024/01/04 11:30:57;;;;;;;3.95;1.33;;;;;;;;;;5067541;28;20363;-85
2024/01/04 11:33:42;;;;;;;3.75;1.30;;;;;;;;;;5052721;28;20715;-84
2024/01/04 11:36:37;;;;;;;4.50;1.10;;;;;;;;;;5068593;28;20103;-82
2024/01/04 11:39:27;;;;;;;4.45;1.13;;;;;;;;;;5065854;28;20054;-85
2024/01/04 11:42:14;;;;;;;5.97;1.40;;;;;;;;;;5069676;28;20483;-82
2024/01/04 11:45:06;;;;;;;3.53;1.27;;;;;;;;;;5069675;28;20040;-84
2024/01/04 11:47:51;;;;;;;6.18;1.50;;;;;;;;;;5069414;28;20400;-84
2024/01/04 11:50:36;;;;;;;3.80;1.20;;;;;;;;;;5069424;28;20050;-85
2024/01/04 11:53:22;;;;;;;4.70;1.08;;;;;;;;;;5043104;28;20039;-86
2024/01/04 11:56:08;;;;;;;3.42;1.20;;;;;;;;;;5054382;28;20122;-85
2024/01/04 11:58:53;;;;;;;5.28;1.15;;;;;;;;;;5042264;28;20389;-85
2024/01/04 12:01:39;;;;;;;4.63;1.40;;;;;;;;;;5043678;28;20031;-85
2024/01/04 12:04:24;;;;;;;3.85;1.17;;;;;;;;;;5054432;28;20443;-85
2024/01/04 12:07:10;;;;;;;4.75;1.05;;;;;;;;;;5073307;28;20060;-84
2024/01/04 12:09:57;;;;;;;2.28;1.10;;;;;;;;;;5055059;28;20056;-85
2024/01/04 12:12:42;;;;;;;3.38;1.38;;;;;;;;;;5067323;28;20502;-87
2024/01/04 12:15:27;;;;;;;4.88;1.23;;;;;;;;;;5044279;28;20081;-88
2024/01/04 12:18:14;;;;;;;3.35;0.95;;;;;;;;;;5056350;28;20073;-85
2024/01/04 12:21:02;;;;;;;2.92;1.00;;;;;;;;;;5057940;28;20079;-85
2024/01/04 12:23:48;;;;;;;4.18;1.15;;;;;;;;;;5050701;28;20043;-84
2024/01/04 12:26:34;;;;;;;3.20;1.23;;;;;;;;;;5050804;28;20086;-85
2024/01/04 12:29:19;;;;;;;2.15;1.27;;;;;;;;;;5074143;28;20040;-85
2024/01/04 12:32:04;;;;;;;5.38;1.30;;;;;;;;;;5058114;28;20038;-85
2024/01/04 12:34:55;;;;;;;4.00;1.08;;;;;;;;;;5066012;28;20048;-83
2024/01/04 12:37:39;;;;;;;5.85;1.27;;;;;;;;;;5068087;28;20039;-86
2024/01/04 12:40:25;;;;;;;5.35;1.35;;;;;;;;;;5058531;28;20050;-85
2024/01/04 12:43:13;;;;;;;4.07;1.65;;;;;;;;;;5058234;28;20039;-85
2024/01/04 12:46:04;;;;;;;2.47;0.90;;;;;;;;;;5073381;28;20039;-86
2024/01/04 12:48:49;;;;;;;5.90;1.00;;;;;;;;;;5062908;28;20447;-85
2024/01/04 12:51:40;;;;;;;3.28;1.00;;;;;;;;;;5072979;28;20038;-87
2024/01/04 12:54:25;;;;;;;3.88;1.00;;;;;;;;;;5072455;28;20105;-86
2024/01/04 12:57:11;;;;;;;1.73;0.80;;;;;;;;;;5073612;28;20085;-86
2024/01/04 12:59:56;;;;;;;4.22;0.90;;;;;;;;;;5045791;28;20043;-85
2024/01/04 13:02:40;;;;;;;3.22;0.90;;;;;;;;;;5068754;28;20115;-86
2024/01/04 13:05:26;;;;;;;4.25;1.05;;;;;;;;;;5057929;28;20106;-86
2024/01/04 13:08:19;;;;;;;3.17;1.10;;;;;;;;;;5062998;28;20130;-85
2024/01/04 13:11:09;;;;;;;6.15;1.33;;;;;;;;;;5072658;28;20503;-85
2024/01/04 13:13:54;;;;;;;3.45;1.20;;;;;;;;;;5056493;28;20044;-85
2024/01/04 13:16:39;;;;;;;4.13;1.05;;;;;;;;;;5043422;28;20043;-87
2024/01/04 13:19:25;;;;;;;3.38;1.33;;;;;;;;;;5046033;28;20077;-86
2024/01/04 13:22:10;;;;;;;4.72;1.10;;;;;;;;;;5072690;28;20039;-85
2024/01/04 13:24:55;;;;;;;2.85;0.98;;;;;;;;;;5071938;28;20488;-86
2024/01/04 13:27:39;;;;;;;2.70;1.17;;;;;;;;;;5072272;28;20499;-85
2024/01/04 13:30:25;;;;;;;3.28;1.15;;;;;;;;;;5046606;28;20518;-85
2024/01/04 13:33:10;;;;;;;2.85;1.27;;;;;;;;;;5072745;28;20040;-85
2024/01/04 13:35:57;;;;;;;4.57;1.20;;;;;;;;;;5055776;28;20451;-86
2024/01/04 13:38:42;;;;;;;2.38;1.25;;;;;;;;;;5056957;28;20116;-86
2024/01/04 13:41:27;;;;;;;3.55;1.20;;;;;;;;;;5054601;28;20102;-86
2024/01/04 13:44:12;;;;;;;3.13;1.40;;;;;;;;;;5043175;28;20040;-85
2024/01/04 13:46:56;;;;;;;2.60;1.45;;;;;;;;;;5025385;28;20428;-87
2024/01/04 13:49:41;;;;;;;4.43;1.10;;;;;;;;;;5070844;28;20404;-86
2024/01/04 13:52:26;;;;;;;3.30;1.13;;;;;;;;;;5048286;28;20043;-85
2024/01/04 13:55:11;;;;;;;3.38;1.40;;;;;;;;;;5051676;28;20098;-85
2024/01/04 13:58:01;;;;;;;4.03;1.20;;;;;;;;;;5056465;28;20040;-85
2024/01/04 14:00:47;;;;;;;3.70;1.20;;;;;;;;;;5066753;28;20047;-89
2024/01/04 14:03:32;;;;;;;2.45;1.15;;;;;;;;;;5057247;28;20467;-89
2024/01/04 14:06:18;;;;;;;3.03;1.50;;;;;;;;;;5080364;28;20044;-88
2024/01/04 14:09:03;;;;;;;3.53;1.35;;;;;;;;;;5052374;28;20059;-88
2024/01/04 14:11:47;;;;;;;4.53;1.52;;;;;;;;;;5070843;28;20039;-88
2024/01/04 14:14:33;;;;;;;3.13;1.20;;;;;;;;;;5057015;28;20051;-86
2024/01/04 14:17:18;;;;;;;5.05;1.30;;;;;;;;;;5050180;28;20504;-87
2024/01/04 14:20:02;;;;;;;7.22;1.70;;;;;;;;;;5049190;28;20047;-87
2024/01/04 14:22:47;;;;;;;2.88;1.60;;;;;;;;;;5070765;28;20451;-88
2024/01/04 14:25:33;;;;;;;5.40;1.30;;;;;;;;;;5046328;28;20166;-86
2024/01/04 14:28:18;;;;;;;4.63;1.30;;;;;;;;;;5070715;28;20074;-86
2024/01/04 14:31:02;;;;;;;3.13;1.08;;;;;;;;;;5069734;28;20043;-86
2024/01/04 14:33:47;;;;;;;2.63;1.13;;;;;;;;;;5051331;28;20040;-87
2024/01/04 14:36:31;;;;;;;4.45;1.33;;;;;;;;;;5070597;28;20109;-86
2024/01/04 14:39:21;;;;;;;2.88;1.10;;;;;;;;;;5070751;28;20492;-86
2024/01/04 14:42:06;;;;;;;3.10;1.30;;;;;;;;;;5030384;28;20040;-86
2024/01/04 14:44:50;;;;;;;6.03;1.55;;;;;;;;;;5055691;28;20553;-86
2024/01/04 14:47:37;;;;;;;4.70;1.50;;;;;;;;;;5056479;28;20089;-87
2024/01/04 14:50:22;;;;;;;6.63;1.33;;;;;;;;;;5056168;28;20043;-86
2024/01/04 14:53:07;;;;;;;5.40;1.45;;;;;;;;;;5041379;28;20504;-86
2024/01/04 14:55:53;;;;;;;3.72;1.33;;;;;;;;;;5055424;28;20122;-87
2024/01/04 14:58:38;;;;;;;3.65;1.10;;;;;;;;;;5056310;28;20058;-86
2024/01/04 15:01:22;;;;;;;2.25;1.23;;;;;;;;;;5055158;28;20036;-87
2024/01/04 15:04:13;;;;;;;4.18;1.15;;;;;;;;;;5038006;28;20477;-86
2024/01/04 15:06:58;;;;;;;4.43;1.38;;;;;;;;;;5063711;28;20063;-86
2024/01/04 15:09:43;;;;;;;3.50;1.45;;;;;;;;;;5056496;28;20043;-86
2024/01/04 15:12:28;;;;;;;3.85;1.40;;;;;;;;;;5073707;28;20548;-86
2024/01/04 15:15:14;;;;;;;6.47;1.85;;;;;;;;;;5074337;28;20048;-88
2024/01/04 15:17:59;;;;;;;3.72;1.40;;;;;;;;;;5065992;28;20161;-86
2024/01/04 15:20:44;;;;;;;6.55;1.52;;;;;;;;;;5073788;28;20043;-86
2024/01/04 15:23:29;;;;;;;4.32;1.27;;;;;;;;;;5075572;28;20043;-86
2024/01/04 15:26:15;;;;;;;8.23;2.45;;;;;;;;;;5074791;28;20597;-86
2024/01/04 15:29:00;;;;;;;4.45;1.40;;;;;;;;;;5075223;28;20147;-86
2024/01/04 15:31:44;;;;;;;4.53;1.35;;;;;;;;;;5090761;28;20035;-86
2024/01/04 15:34:29;;;;;;;4.30;1.35;;;;;;;;;;5074058;28;20063;-86
2024/01/04 15:37:16;;;;;;;2.63;1.30;;;;;;;;;;5052583;28;20031;-86
2024/01/04 15:40:05;;;;;;;4.07;1.20;;;;;;;;;;5061316;28;20034;-86
2024/01/04 15:42:49;;;;;;;7.20;1.65;;;;;;;;;;5076928;28;20038;-86
2024/01/04 15:45:35;;;;;;;7.80;1.58;;;;;;;;;;5095090;28;20400;-86
2024/01/04 15:48:22;;;;;;;3.38;1.30;;;;;;;;;;5064958;28;20173;-87
2024/01/04 15:51:07;;;;;;;3.50;1.50;;;;;;;;;;5078220;28;20123;-86
2024/01/04 15:53:53;;;;;;;4.40;1.60;;;;;;;;;;5083467;28;20408;-86
2024/01/04 15:56:37;;;;;;;7.75;2.03;;;;;;;;;;5094045;28;20035;-86
2024/01/04 15:59:22;;;;;;;5.32;1.80;;;;;;;;;;5078134;28;20038;-87
2024/01/04 16:02:06;;;;;;;7.10;2.90;;;;;;;;;;5078639;28;20062;-87
2024/01/04 16:04:51;;;;;;;4.55;1.75;;;;;;;;;;5068772;28;20097;-86
2024/01/04 16:07:40;;;;;;;3.60;1.60;;;;;;;;;;5078320;28;20508;-86
2024/01/04 16:10:26;;;;;;;8.00;2.90;;;;;;;;;;5077189;28;20039;-86
2024/01/04 16:13:11;;;;;;;5.93;2.42;;;;;;;;;;5084648;28;20035;-86
2024/01/04 16:15:56;;;;;;;11.98;4.55;;;;;;;;;;5094300;28;20450;-86
2024/01/04 16:18:41;;;;;;;6.90;3.47;;;;;;;;;;5078881;28;20044;-86
2024/01/04 16:21:27;;;;;;;10.88;4.07;;;;;;;;;;5094403;28;20401;-85
2024/01/04 16:24:12;;;;;;;9.00;3.58;;;;;;;;;;5061893;28;20042;-86
2024/01/04 16:26:56;;;;;;;4.75;3.05;;;;;;;;;;5051539;28;20035;-86
2024/01/04 16:29:41;;;;;;;3.50;1.80;;;;;;;;;;5093944;28;20043;-85
2024/01/04 16:32:26;;;;;;;5.78;2.17;;;;;;;;;;5093724;28;20097;-86